createdAt,value
2022-10-15T00:00:21.285Z,13.39
2022-10-15T00:01:21.267Z,13.41
2022-10-15T00:02:21.206Z,13.42
2022-10-15T00:03:21.224Z,13.44
2022-10-15T00:04:21.205Z,13.44
2022-10-15T00:05:21.157Z,13.49
2022-10-15T00:06:21.170Z,13.52
2022-10-15T00:07:21.464Z,13.52
2022-10-15T00:08:21.161Z,13.52
2022-10-15T00:09:21.117Z,13.54
2022-10-15T00:10:21.129Z,13.54
2022-10-15T00:11:21.154Z,13.56
2022-10-15T00:12:21.086Z,13.54
2022-10-15T00:13:21.093Z,13.54
2022-10-15T00:14:21.088Z,13.54
2022-10-15T00:15:21.075Z,13.56
2022-10-15T00:16:21.054Z,13.54
2022-10-15T00:17:21.542Z,13.54
2022-10-15T00:18:21.090Z,13.54
2022-10-15T00:19:21.045Z,13.54
2022-10-15T00:20:21.043Z,13.56
2022-10-15T00:21:20.998Z,13.56
2022-10-15T00:22:21.361Z,13.53
2022-10-15T00:23:20.971Z,13.54
2022-10-15T00:24:21.051Z,13.54
2022-10-15T00:25:20.971Z,13.54
2022-10-15T00:26:20.987Z,13.54
2022-10-15T00:27:20.939Z,13.56
2022-10-15T00:28:21.063Z,13.56
2022-10-15T00:29:20.995Z,13.54
2022-10-15T00:30:20.947Z,13.54
2022-10-15T00:31:20.914Z,13.53
2022-10-15T00:32:21.228Z,13.53
2022-10-15T00:33:20.867Z,13.53
2022-10-15T00:34:20.939Z,13.53
2022-10-15T00:35:20.876Z,13.53
2022-10-15T00:36:20.856Z,13.52
2022-10-15T00:37:20.844Z,13.52
2022-10-15T00:38:20.819Z,13.50
2022-10-15T00:39:20.817Z,13.50
2022-10-15T00:40:20.824Z,13.50
2022-10-15T00:41:20.776Z,13.50
2022-10-15T00:42:21.240Z,13.50
2022-10-15T00:43:20.816Z,13.49
2022-10-15T00:44:20.783Z,13.50
2022-10-15T00:45:20.750Z,13.52
2022-10-15T00:46:20.734Z,13.50
2022-10-15T00:47:20.715Z,13.50
2022-10-15T00:48:20.727Z,13.50
2022-10-15T00:49:20.732Z,13.52
2022-10-15T00:50:20.706Z,13.49
2022-10-15T00:51:20.695Z,13.50
2022-10-15T00:52:21.082Z,13.47
2022-10-15T00:53:20.675Z,13.47
2022-10-15T00:54:20.675Z,13.46
2022-10-15T00:55:20.631Z,13.47
2022-10-15T00:56:20.673Z,13.49
2022-10-15T00:57:20.665Z,13.46
2022-10-15T00:58:20.659Z,13.47
2022-10-15T00:59:20.605Z,13.47
2022-10-15T01:00:20.672Z,13.46
2022-10-15T01:01:20.639Z,13.47
2022-10-15T01:02:20.893Z,13.46
2022-10-15T01:03:20.549Z,13.46
2022-10-15T01:04:20.559Z,13.47
2022-10-15T01:05:20.614Z,13.46
2022-10-15T01:06:20.525Z,13.46
2022-10-15T01:07:20.499Z,13.46
2022-10-15T01:08:20.510Z,13.46
2022-10-15T01:09:20.487Z,13.46
2022-10-15T01:10:20.515Z,13.44
2022-10-15T01:11:20.512Z,13.44
2022-10-15T01:12:20.624Z,13.44
2022-10-15T01:13:20.453Z,13.46
2022-10-15T01:14:20.437Z,13.47
2022-10-15T01:15:20.427Z,13.44
2022-10-15T01:16:20.480Z,13.46
2022-10-15T01:17:20.509Z,13.46
2022-10-15T01:18:20.410Z,13.47
2022-10-15T01:19:20.441Z,13.46
2022-10-15T01:20:20.380Z,13.46
2022-10-15T01:21:20.397Z,13.44
2022-10-15T01:22:20.363Z,13.44
2022-10-15T01:23:22.390Z,13.44
2022-10-15T01:24:20.372Z,13.42
2022-10-15T01:25:20.325Z,13.42
2022-10-15T01:26:20.299Z,13.41
2022-10-15T01:27:20.448Z,13.39
2022-10-15T01:28:20.517Z,13.39
2022-10-15T01:29:20.303Z,13.39
2022-10-15T01:30:20.315Z,13.41
2022-10-15T01:31:20.320Z,13.39
2022-10-15T01:32:20.247Z,13.39
2022-10-15T01:33:20.229Z,13.39
2022-10-15T01:35:20.252Z,13.41
2022-10-15T01:36:20.243Z,13.41
2022-10-15T01:37:20.332Z,13.42
2022-10-15T01:38:20.220Z,13.39
2022-10-15T01:39:20.184Z,13.39
2022-10-15T01:40:20.194Z,13.41
2022-10-15T01:41:20.164Z,13.39
2022-10-15T01:42:20.142Z,13.39
2022-10-15T01:43:20.167Z,13.38
2022-10-15T01:44:20.183Z,13.39
2022-10-15T01:45:20.168Z,13.38
2022-10-15T01:46:20.118Z,13.38
2022-10-15T01:47:20.308Z,13.39
2022-10-15T01:48:20.178Z,13.39
2022-10-15T01:49:20.081Z,13.38
2022-10-15T01:50:20.072Z,13.39
2022-10-15T01:51:20.102Z,13.38
2022-10-15T01:52:20.071Z,13.38
2022-10-15T01:53:20.036Z,13.35
2022-10-15T01:54:20.028Z,13.33
2022-10-15T01:55:20.065Z,13.33
2022-10-15T01:56:20.009Z,13.31
2022-10-15T01:57:20.034Z,13.31
2022-10-15T01:58:20.041Z,13.31
2022-10-15T01:59:19.955Z,13.31
2022-10-15T02:00:19.965Z,13.31
2022-10-15T02:01:20.008Z,13.33
2022-10-15T02:02:19.933Z,13.33
2022-10-15T02:03:19.977Z,13.35
2022-10-15T02:04:19.931Z,13.35
2022-10-15T02:05:19.922Z,13.33
2022-10-15T02:06:19.909Z,13.35
2022-10-15T02:07:19.873Z,13.35
2022-10-15T02:08:19.948Z,13.35
2022-10-15T02:09:19.865Z,13.33
2022-10-15T02:10:19.822Z,13.33
2022-10-15T02:11:19.903Z,13.33
2022-10-15T02:12:19.889Z,13.31
2022-10-15T02:13:19.838Z,13.31
2022-10-15T02:14:19.798Z,13.33
2022-10-15T02:15:19.769Z,13.33
2022-10-15T02:16:19.816Z,13.35
2022-10-15T02:17:19.788Z,13.35
2022-10-15T02:18:19.763Z,13.37
2022-10-15T02:19:19.742Z,13.37
2022-10-15T02:20:19.785Z,13.37
2022-10-15T02:21:19.770Z,13.37
2022-10-15T02:22:19.721Z,13.37
2022-10-15T02:23:19.736Z,13.38
2022-10-15T02:24:19.718Z,13.38
2022-10-15T02:25:19.689Z,13.39
2022-10-15T02:26:19.665Z,13.38
2022-10-15T02:27:19.687Z,13.38
2022-10-15T02:28:19.695Z,13.38
2022-10-15T02:29:19.656Z,13.39
2022-10-15T02:30:19.629Z,13.39
2022-10-15T02:31:19.632Z,13.39
2022-10-15T02:32:19.619Z,13.39
2022-10-15T02:33:19.594Z,13.41
2022-10-15T02:34:19.637Z,13.39
2022-10-15T02:35:19.631Z,13.41
2022-10-15T02:36:19.603Z,13.41
2022-10-15T02:37:19.574Z,13.39
2022-10-15T02:38:19.543Z,13.39
2022-10-15T02:39:19.543Z,13.39
2022-10-15T02:40:19.544Z,13.39
2022-10-15T02:41:19.509Z,13.39
2022-10-15T02:42:19.543Z,13.38
2022-10-15T02:43:19.491Z,13.38
2022-10-15T02:44:19.532Z,13.38
2022-10-15T02:45:19.482Z,13.39
2022-10-15T02:46:19.506Z,13.41
2022-10-15T02:47:19.517Z,13.38
2022-10-15T02:48:19.488Z,13.38
2022-10-15T02:49:19.475Z,13.39
2022-10-15T02:50:19.420Z,13.39
2022-10-15T02:51:19.418Z,13.39
2022-10-15T02:52:19.382Z,13.39
2022-10-15T02:53:19.431Z,13.41
2022-10-15T02:54:19.468Z,13.39
2022-10-15T02:55:19.426Z,13.39
2022-10-15T02:56:19.390Z,13.39
2022-10-15T02:57:19.337Z,13.39
2022-10-15T02:58:19.369Z,13.39
2022-10-15T02:59:19.306Z,13.37
2022-10-15T03:00:19.374Z,13.35
2022-10-15T03:01:19.427Z,13.37
2022-10-15T03:02:19.504Z,13.35
2022-10-15T03:03:19.338Z,13.35
2022-10-15T03:04:19.263Z,13.33
2022-10-15T03:05:19.344Z,13.35
2022-10-15T03:06:19.269Z,13.33
2022-10-15T03:07:19.251Z,13.31
2022-10-15T03:08:19.271Z,13.31
2022-10-15T03:09:19.276Z,13.30
2022-10-15T03:10:19.277Z,13.28
2022-10-15T03:11:19.203Z,13.28
2022-10-15T03:12:19.216Z,13.30
2022-10-15T03:13:19.257Z,13.30
2022-10-15T03:14:19.206Z,13.30
2022-10-15T03:15:19.292Z,13.30
2022-10-15T03:16:19.216Z,13.30
2022-10-15T03:17:19.226Z,13.31
2022-10-15T03:18:19.189Z,13.28
2022-10-15T03:19:19.107Z,13.27
2022-10-15T03:20:19.088Z,13.25
2022-10-15T03:21:19.091Z,13.27
2022-10-15T03:22:19.124Z,13.25
2022-10-15T03:23:19.149Z,13.25
2022-10-15T03:24:19.073Z,13.27
2022-10-15T03:25:19.064Z,13.23
2022-10-15T03:26:19.062Z,13.23
2022-10-15T03:27:19.042Z,13.23
2022-10-15T03:28:19.053Z,13.22
2022-10-15T03:29:19.004Z,13.22
2022-10-15T03:30:19.024Z,13.22
2022-10-15T03:31:19.034Z,13.23
2022-10-15T03:32:19.003Z,13.23
2022-10-15T03:33:20.785Z,13.22
2022-10-15T03:34:18.932Z,13.23
2022-10-15T03:35:19.078Z,13.23
2022-10-15T03:36:18.934Z,13.22
2022-10-15T03:37:18.939Z,13.23
2022-10-15T03:38:18.921Z,13.22
2022-10-15T03:39:18.942Z,13.23
2022-10-15T03:40:18.938Z,13.22
2022-10-15T03:41:18.873Z,13.22
2022-10-15T03:42:18.882Z,13.25
2022-10-15T03:43:18.873Z,13.22
2022-10-15T03:44:18.835Z,13.22
2022-10-15T03:45:18.886Z,13.23
2022-10-15T03:46:18.921Z,13.25
2022-10-15T03:47:18.823Z,13.23
2022-10-15T03:48:18.823Z,13.23
2022-10-15T03:49:18.789Z,13.23
2022-10-15T03:50:18.789Z,13.25
2022-10-15T03:51:22.753Z,13.27
2022-10-15T03:52:18.784Z,13.27
2022-10-15T03:53:18.768Z,13.25
2022-10-15T03:54:18.740Z,13.25
2022-10-15T03:55:18.759Z,13.25
2022-10-15T03:56:18.706Z,13.25
2022-10-15T03:57:18.755Z,13.28
2022-10-15T03:58:18.707Z,13.28
2022-10-15T03:59:18.704Z,13.28
2022-10-15T04:00:18.722Z,13.27
2022-10-15T04:01:18.791Z,13.25
2022-10-15T04:02:18.632Z,13.27
2022-10-15T04:03:18.745Z,13.27
2022-10-15T04:04:18.690Z,13.27
2022-10-15T04:05:18.624Z,13.28
2022-10-15T04:06:18.688Z,13.28
2022-10-15T04:07:18.632Z,13.25
2022-10-15T04:08:18.623Z,13.27
2022-10-15T04:09:18.603Z,13.27
2022-10-15T04:10:18.576Z,13.25
2022-10-15T04:11:18.571Z,13.25
2022-10-15T04:12:18.594Z,13.25
2022-10-15T04:13:18.553Z,13.27
2022-10-15T04:14:18.529Z,13.25
2022-10-15T04:15:18.499Z,13.27
2022-10-15T04:16:18.539Z,13.25
2022-10-15T04:17:18.500Z,13.27
2022-10-15T04:18:18.480Z,13.25
2022-10-15T04:19:18.495Z,13.27
2022-10-15T04:20:18.516Z,13.25
2022-10-15T04:21:18.449Z,13.23
2022-10-15T04:22:18.461Z,13.25
2022-10-15T04:23:18.420Z,13.23
2022-10-15T04:24:18.481Z,13.25
2022-10-15T04:25:18.412Z,13.25
2022-10-15T04:26:18.471Z,13.25
2022-10-15T04:27:18.440Z,13.23
2022-10-15T04:28:18.389Z,13.23
2022-10-15T04:29:18.527Z,13.23
2022-10-15T04:30:18.387Z,13.23
2022-10-15T04:31:18.398Z,13.23
2022-10-15T04:32:18.391Z,13.23
2022-10-15T04:33:18.305Z,13.22
2022-10-15T04:34:18.357Z,13.23
2022-10-15T04:35:18.326Z,13.23
2022-10-15T04:37:18.278Z,13.23
2022-10-15T04:38:18.293Z,13.23
2022-10-15T04:39:18.299Z,13.25
2022-10-15T04:40:18.263Z,13.27
2022-10-15T04:41:18.298Z,13.25
2022-10-15T04:42:18.251Z,13.25
2022-10-15T04:43:18.231Z,13.23
2022-10-15T04:44:18.212Z,13.27
2022-10-15T04:45:18.202Z,13.27
2022-10-15T04:46:18.223Z,13.25
2022-10-15T04:47:18.192Z,13.27
2022-10-15T04:48:18.164Z,13.25
2022-10-15T04:49:18.159Z,13.27
2022-10-15T04:50:18.143Z,13.27
2022-10-15T04:51:18.167Z,13.27
2022-10-15T04:52:18.145Z,13.27
2022-10-15T04:53:18.106Z,13.27
2022-10-15T04:54:18.154Z,13.27
2022-10-15T04:55:18.111Z,13.28
2022-10-15T04:56:18.092Z,13.28
2022-10-15T04:57:18.113Z,13.27
2022-10-15T04:58:18.049Z,13.27
2022-10-15T04:59:18.027Z,13.25
2022-10-15T05:00:18.035Z,13.25
2022-10-15T05:01:18.050Z,13.25
2022-10-15T05:02:18.060Z,13.25
2022-10-15T05:03:18.083Z,13.25
2022-10-15T05:04:18.031Z,13.25
2022-10-15T05:05:17.986Z,13.25
2022-10-15T05:06:18.011Z,13.25
2022-10-15T05:07:18.004Z,13.25
2022-10-15T05:08:17.941Z,13.25
2022-10-15T05:09:17.951Z,13.23
2022-10-15T05:10:17.961Z,13.22
2022-10-15T05:11:17.923Z,13.22
2022-10-15T05:12:17.904Z,13.22
2022-10-15T05:13:17.917Z,13.23
2022-10-15T05:14:17.909Z,13.23
2022-10-15T05:15:17.904Z,13.23
2022-10-15T05:16:17.872Z,13.25
2022-10-15T05:17:17.847Z,13.23
2022-10-15T05:18:17.830Z,13.25
2022-10-15T05:19:17.841Z,13.25
2022-10-15T05:20:17.837Z,13.23
2022-10-15T05:21:17.811Z,13.23
2022-10-15T05:22:17.834Z,13.23
2022-10-15T05:23:17.788Z,13.28
2022-10-15T05:24:17.780Z,13.25
2022-10-15T05:25:17.772Z,13.25
2022-10-15T05:26:17.748Z,13.23
2022-10-15T05:27:17.726Z,13.23
2022-10-15T05:28:17.768Z,13.27
2022-10-15T05:29:17.660Z,13.27
2022-10-15T05:30:17.657Z,13.25
2022-10-15T05:31:19.044Z,13.28
2022-10-15T05:32:17.680Z,13.27
2022-10-15T05:33:17.649Z,13.28
2022-10-15T05:34:17.695Z,13.23
2022-10-15T05:35:17.674Z,13.27
2022-10-15T05:36:17.600Z,13.27
2022-10-15T05:37:17.602Z,13.27
2022-10-15T05:38:17.586Z,13.25
2022-10-15T05:39:17.602Z,13.25
2022-10-15T05:40:21.111Z,13.25
2022-10-15T05:41:17.602Z,13.25
2022-10-15T05:42:17.573Z,13.27
2022-10-15T05:43:17.511Z,13.27
2022-10-15T05:44:17.523Z,13.27
2022-10-15T05:45:17.510Z,13.23
2022-10-15T05:46:17.519Z,13.28
2022-10-15T05:47:17.483Z,13.27
2022-10-15T05:48:17.463Z,13.27
2022-10-15T05:49:17.441Z,13.28
2022-10-15T05:50:17.434Z,13.28
2022-10-15T05:51:17.456Z,13.25
2022-10-15T05:52:17.411Z,13.27
2022-10-15T05:53:17.412Z,13.23
2022-10-15T05:54:17.426Z,13.25
2022-10-15T05:55:17.443Z,13.23
2022-10-15T05:56:17.375Z,13.23
2022-10-15T05:57:17.383Z,13.25
2022-10-15T05:58:17.368Z,13.23
2022-10-15T05:59:17.348Z,13.23
2022-10-15T06:00:17.343Z,13.23
2022-10-15T06:01:17.340Z,13.23
2022-10-15T06:02:17.402Z,13.23
2022-10-15T06:03:17.388Z,13.23
2022-10-15T06:04:17.304Z,13.23
2022-10-15T06:05:17.412Z,13.22
2022-10-15T06:06:17.307Z,13.23
2022-10-15T06:07:17.248Z,13.23
2022-10-15T06:08:17.276Z,13.23
2022-10-15T06:09:17.249Z,13.23
2022-10-15T06:10:17.259Z,13.25
2022-10-15T06:11:17.360Z,13.25
2022-10-15T06:12:17.241Z,13.27
2022-10-15T06:13:17.257Z,13.27
2022-10-15T06:14:17.224Z,13.27
2022-10-15T06:15:17.201Z,13.28
2022-10-15T06:16:20.851Z,13.27
2022-10-15T06:17:17.235Z,13.28
2022-10-15T06:18:17.195Z,13.30
2022-10-15T06:19:17.161Z,13.31
2022-10-15T06:20:17.139Z,13.31
2022-10-15T06:21:17.136Z,13.35
2022-10-15T06:22:17.084Z,13.35
2022-10-15T06:23:17.117Z,13.33
2022-10-15T06:24:17.138Z,13.35
2022-10-15T06:25:17.077Z,13.35
2022-10-15T06:26:17.076Z,13.37
2022-10-15T06:27:17.049Z,13.37
2022-10-15T06:28:17.090Z,13.39
2022-10-15T06:29:17.041Z,13.37
2022-10-15T06:30:17.045Z,13.39
2022-10-15T06:31:17.045Z,13.38
2022-10-15T06:32:17.000Z,13.39
2022-10-15T06:33:17.131Z,13.41
2022-10-15T06:34:17.034Z,13.41
2022-10-15T06:35:16.957Z,13.42
2022-10-15T06:36:16.985Z,13.42
2022-10-15T06:37:16.994Z,13.44
2022-10-15T06:38:16.942Z,13.42
2022-10-15T06:39:16.905Z,13.44
2022-10-15T06:40:16.968Z,13.44
2022-10-15T06:41:16.897Z,13.46
2022-10-15T06:42:16.888Z,13.44
2022-10-15T06:43:16.873Z,13.47
2022-10-15T06:44:16.869Z,13.46
2022-10-15T06:45:19.442Z,13.47
2022-10-15T06:46:16.846Z,13.47
2022-10-15T06:47:16.819Z,13.46
2022-10-15T06:48:16.825Z,13.46
2022-10-15T06:49:16.814Z,13.44
2022-10-15T06:50:16.820Z,13.46
2022-10-15T06:51:16.790Z,13.42
2022-10-15T06:52:16.793Z,13.42
2022-10-15T06:53:16.775Z,13.42
2022-10-15T06:54:16.799Z,13.41
2022-10-15T06:55:16.762Z,13.46
2022-10-15T06:56:16.731Z,13.47
2022-10-15T06:57:16.753Z,13.44
2022-10-15T06:58:16.715Z,13.49
2022-10-15T06:59:16.760Z,13.52
2022-10-15T07:00:16.714Z,13.53
2022-10-15T07:01:16.696Z,13.57
2022-10-15T07:02:16.728Z,13.60
2022-10-15T07:03:17.531Z,13.63
2022-10-15T07:04:16.635Z,13.63
2022-10-15T07:05:16.638Z,13.65
2022-10-15T07:06:16.622Z,13.65
2022-10-15T07:07:16.627Z,13.65
2022-10-15T07:08:19.160Z,13.65
2022-10-15T07:09:16.593Z,13.65
2022-10-15T07:10:16.622Z,13.70
2022-10-15T07:11:16.794Z,13.71
2022-10-15T07:12:16.562Z,13.74
2022-10-15T07:13:16.564Z,13.77
2022-10-15T07:14:16.548Z,13.83
2022-10-15T07:15:16.515Z,13.85
2022-10-15T07:16:16.544Z,13.86
2022-10-15T07:17:16.525Z,13.83
2022-10-15T07:18:16.507Z,13.86
2022-10-15T07:19:16.508Z,13.85
2022-10-15T07:20:20.234Z,13.85
2022-10-15T07:21:16.465Z,13.85
2022-10-15T07:22:16.543Z,13.86
2022-10-15T07:23:16.506Z,13.86
2022-10-15T07:24:16.449Z,13.86
2022-10-15T07:25:16.407Z,13.83
2022-10-15T07:26:16.425Z,13.85
2022-10-15T07:27:19.171Z,13.83
2022-10-15T07:28:16.560Z,13.85
2022-10-15T07:29:16.376Z,13.83
2022-10-15T07:30:16.368Z,13.86
2022-10-15T07:31:16.417Z,13.85
2022-10-15T07:32:16.359Z,13.86
2022-10-15T07:33:16.356Z,13.86
2022-10-15T07:34:16.348Z,13.86
2022-10-15T07:35:16.324Z,13.87
2022-10-15T07:36:16.356Z,13.89
2022-10-15T07:37:16.291Z,13.90
2022-10-15T07:38:16.285Z,13.92
2022-10-15T07:39:16.300Z,13.95
2022-10-15T07:40:16.249Z,13.97
2022-10-15T07:41:16.239Z,13.97
2022-10-15T07:42:16.289Z,13.99
2022-10-15T07:43:16.276Z,14.00
2022-10-15T07:44:16.236Z,14.03
2022-10-15T07:45:16.206Z,14.03
2022-10-15T07:46:16.274Z,14.04
2022-10-15T07:47:16.193Z,14.05
2022-10-15T07:48:16.209Z,14.08
2022-10-15T07:49:16.206Z,14.10
2022-10-15T07:50:16.162Z,14.10
2022-10-15T07:52:16.152Z,14.15
2022-10-15T07:53:18.108Z,14.15
2022-10-15T07:54:16.127Z,14.17
2022-10-15T07:55:16.134Z,14.20
2022-10-15T07:56:16.121Z,14.23
2022-10-15T07:57:16.107Z,14.25
2022-10-15T07:58:16.090Z,14.26
2022-10-15T07:59:16.110Z,14.30
2022-10-15T08:00:16.087Z,14.32
2022-10-15T08:01:16.089Z,14.36
2022-10-15T08:02:16.063Z,14.37
2022-10-15T08:03:16.177Z,14.41
2022-10-15T08:04:16.158Z,14.43
2022-10-15T08:05:16.035Z,14.45
2022-10-15T08:06:15.985Z,14.47
2022-10-15T08:07:15.962Z,14.51
2022-10-15T08:08:16.006Z,14.55
2022-10-15T08:09:16.015Z,14.58
2022-10-15T08:10:16.261Z,14.62
2022-10-15T08:11:15.971Z,14.65
2022-10-15T08:12:16.002Z,14.66
2022-10-15T08:13:15.912Z,14.66
2022-10-15T08:14:15.972Z,14.70
2022-10-15T08:15:15.976Z,14.70
2022-10-15T08:16:15.918Z,14.73
2022-10-15T08:17:16.449Z,14.78
2022-10-15T08:18:15.892Z,14.81
2022-10-15T08:19:15.978Z,14.84
2022-10-15T08:20:16.497Z,14.88
2022-10-15T08:21:15.936Z,14.89
2022-10-15T08:22:15.981Z,14.89
2022-10-15T08:23:15.847Z,14.88
2022-10-15T08:24:15.899Z,14.85
2022-10-15T08:25:15.934Z,14.89
2022-10-15T08:26:15.778Z,14.94
2022-10-15T08:27:15.863Z,14.99
2022-10-15T08:28:15.819Z,14.97
2022-10-15T08:29:15.872Z,14.97
2022-10-15T08:30:15.968Z,14.96
2022-10-15T08:32:32.793Z,14.92
2022-10-15T08:33:33.909Z,14.92
2022-10-15T08:34:33.698Z,14.96
2022-10-15T08:35:33.719Z,14.97
2022-10-15T08:36:33.638Z,14.92
2022-10-15T08:37:33.741Z,14.91
2022-10-15T08:38:33.673Z,14.91
2022-10-15T08:39:33.637Z,14.91
2022-10-15T08:40:33.708Z,14.96
2022-10-15T08:41:33.669Z,15.00
2022-10-15T08:42:33.642Z,15.15
2022-10-15T08:43:33.643Z,15.31
2022-10-15T08:44:33.614Z,15.39
2022-10-15T08:45:33.567Z,15.42
2022-10-15T08:46:33.546Z,15.44
2022-10-15T08:47:33.527Z,15.51
2022-10-15T08:48:33.566Z,15.54
2022-10-15T08:49:33.526Z,15.59
2022-10-15T08:50:33.537Z,15.59
2022-10-15T08:51:33.569Z,15.59
2022-10-15T08:52:33.542Z,15.55
2022-10-15T08:53:33.759Z,15.51
2022-10-15T08:54:33.456Z,15.49
2022-10-15T08:55:33.466Z,15.46
2022-10-15T08:56:33.634Z,15.47
2022-10-15T08:57:33.438Z,15.52
2022-10-15T08:58:36.957Z,15.54
2022-10-15T08:59:33.449Z,15.52
2022-10-15T09:00:33.465Z,15.52
2022-10-15T09:01:33.609Z,15.54
2022-10-15T09:02:33.427Z,15.54
2022-10-15T09:03:33.378Z,15.52
2022-10-15T09:04:33.373Z,15.51
2022-10-15T09:05:33.343Z,15.51
2022-10-15T09:06:33.388Z,15.54
2022-10-15T09:07:35.035Z,15.55
2022-10-15T09:08:33.344Z,15.59
2022-10-15T09:09:36.839Z,15.64
2022-10-15T09:12:31.658Z,15.76
2022-10-15T09:13:32.666Z,15.86
2022-10-15T09:14:32.586Z,15.97
2022-10-15T09:15:32.579Z,16.04
2022-10-15T09:16:32.556Z,16.09
2022-10-15T09:17:32.576Z,16.15
2022-10-15T09:18:32.534Z,16.17
2022-10-15T09:19:32.544Z,16.23
2022-10-15T09:20:32.515Z,16.26
2022-10-15T09:21:32.522Z,16.32
2022-10-15T09:22:32.549Z,16.32
2022-10-15T09:23:33.129Z,16.36
2022-10-15T09:24:32.486Z,16.41
2022-10-15T09:25:32.478Z,16.46
2022-10-15T09:26:32.450Z,16.51
2022-10-15T09:27:32.485Z,16.58
2022-10-15T09:28:32.486Z,16.66
2022-10-15T09:29:32.422Z,16.72
2022-10-15T09:30:32.534Z,16.83
2022-10-15T09:31:32.412Z,16.87
2022-10-15T09:32:32.398Z,16.86
2022-10-15T09:33:32.395Z,16.90
2022-10-15T09:34:32.387Z,17.01
2022-10-15T09:35:32.355Z,17.09
2022-10-15T09:36:32.354Z,17.16
2022-10-15T09:37:32.343Z,17.19
2022-10-15T09:38:32.331Z,17.30
2022-10-15T09:39:32.326Z,17.31
2022-10-15T09:40:32.310Z,17.30
2022-10-15T09:41:32.308Z,17.31
2022-10-15T09:42:32.308Z,17.31
2022-10-15T09:43:32.271Z,17.29
2022-10-15T09:44:32.278Z,17.23
2022-10-15T09:45:32.255Z,17.22
2022-10-15T09:46:32.277Z,17.26
2022-10-15T09:47:32.250Z,17.27
2022-10-15T09:48:32.222Z,17.26
2022-10-15T09:49:36.270Z,17.26
2022-10-15T09:50:32.196Z,17.23
2022-10-15T09:51:32.190Z,17.20
2022-10-15T09:52:32.179Z,17.19
2022-10-15T09:53:32.200Z,17.15
2022-10-15T09:54:32.179Z,17.19
2022-10-15T09:55:32.150Z,17.19
2022-10-15T09:56:32.131Z,17.19
2022-10-15T09:57:32.124Z,17.15
2022-10-15T09:58:32.123Z,17.14
2022-10-15T10:00:32.103Z,17.06
2022-10-15T10:01:32.090Z,17.08
2022-10-15T10:02:32.168Z,17.11
2022-10-15T10:03:32.095Z,17.20
2022-10-15T10:04:32.073Z,17.27
2022-10-15T10:05:32.066Z,17.33
2022-10-15T10:06:32.034Z,17.41
2022-10-15T10:07:32.062Z,17.52
2022-10-15T10:08:32.014Z,17.56
2022-10-15T10:09:32.013Z,17.57
2022-10-15T10:10:32.016Z,17.59
2022-10-15T10:11:31.985Z,17.63
2022-10-15T10:12:31.976Z,17.67
2022-10-15T10:13:31.984Z,17.64
2022-10-15T10:14:31.954Z,17.64
2022-10-15T10:15:31.970Z,17.65
2022-10-15T10:16:31.958Z,17.71
2022-10-15T10:17:31.936Z,17.72
2022-10-15T10:18:31.925Z,17.68
2022-10-15T10:19:31.909Z,17.67
2022-10-15T10:20:31.895Z,17.71
2022-10-15T10:21:31.897Z,17.76
2022-10-15T10:22:31.875Z,17.78
2022-10-15T10:23:31.890Z,17.85
2022-10-15T10:24:31.973Z,17.89
2022-10-15T10:25:31.852Z,17.86
2022-10-15T10:26:31.840Z,17.83
2022-10-15T10:27:31.875Z,17.92
2022-10-15T10:28:31.889Z,17.94
2022-10-15T10:29:34.556Z,18.04
2022-10-15T10:30:31.808Z,18.18
2022-10-15T10:31:31.787Z,18.23
2022-10-15T10:32:31.808Z,18.25
2022-10-15T10:33:31.777Z,18.26
2022-10-15T10:34:31.753Z,18.28
2022-10-15T10:35:31.751Z,18.22
2022-10-15T10:36:31.734Z,18.15
2022-10-15T10:37:31.748Z,18.08
2022-10-15T10:38:31.721Z,18.04
2022-10-15T10:39:31.703Z,18.03
2022-10-15T10:40:31.693Z,18.04
2022-10-15T10:41:31.684Z,17.98
2022-10-15T10:42:31.691Z,17.98
2022-10-15T10:43:34.367Z,17.95
2022-10-15T10:44:31.665Z,17.90
2022-10-15T10:45:31.649Z,17.90
2022-10-15T10:46:31.631Z,17.86
2022-10-15T10:47:31.641Z,17.85
2022-10-15T10:48:31.748Z,17.83
2022-10-15T10:49:31.637Z,17.80
2022-10-15T10:50:31.606Z,17.80
2022-10-15T10:51:31.571Z,17.82
2022-10-15T10:52:31.568Z,17.85
2022-10-15T10:53:31.576Z,17.86
2022-10-15T10:54:31.609Z,17.87
2022-10-15T10:55:31.573Z,17.85
2022-10-15T10:56:31.543Z,17.86
2022-10-15T10:57:31.532Z,17.87
2022-10-15T10:58:31.529Z,17.85
2022-10-15T10:59:31.522Z,17.82
2022-10-15T11:00:31.498Z,17.78
2022-10-15T11:01:31.504Z,17.71
2022-10-15T11:02:31.475Z,17.65
2022-10-15T11:03:31.461Z,17.63
2022-10-15T11:04:31.478Z,17.60
2022-10-15T11:05:31.428Z,17.60
2022-10-15T11:06:31.549Z,17.59
2022-10-15T11:07:31.427Z,17.57
2022-10-15T11:08:31.402Z,17.59
2022-10-15T11:09:31.403Z,17.57
2022-10-15T11:10:31.389Z,17.56
2022-10-15T11:11:31.363Z,17.56
2022-10-15T11:12:31.366Z,17.54
2022-10-15T11:13:31.562Z,17.49
2022-10-15T11:14:31.370Z,17.45
2022-10-15T11:15:31.321Z,17.39
2022-10-15T11:16:31.319Z,17.33
2022-10-15T11:17:31.311Z,17.30
2022-10-15T11:18:31.348Z,17.27
2022-10-15T11:20:47.498Z,17.26
2022-10-15T11:21:31.268Z,17.22
2022-10-15T11:22:31.280Z,17.14
2022-10-15T11:23:31.243Z,17.09
2022-10-15T11:24:42.531Z,17.05
2022-10-15T11:25:31.264Z,17.02
2022-10-15T11:26:37.108Z,16.97
2022-10-15T11:27:31.217Z,16.93
2022-10-15T11:28:31.230Z,16.90
2022-10-15T11:29:31.194Z,16.86
2022-10-15T11:30:31.197Z,16.86
2022-10-15T11:31:37.026Z,16.84
2022-10-15T11:32:47.999Z,16.81
2022-10-15T11:33:31.136Z,16.78
2022-10-15T11:34:31.132Z,16.76
2022-10-15T11:35:51.709Z,16.75
2022-10-15T11:36:31.130Z,16.72
2022-10-15T11:37:31.117Z,16.68
2022-10-15T11:38:31.096Z,16.65
2022-10-15T11:39:31.077Z,16.64
2022-10-15T11:41:31.064Z,16.61
2022-10-15T11:42:31.076Z,16.58
2022-10-15T11:43:31.042Z,16.56
2022-10-15T11:44:31.033Z,16.53
2022-10-15T11:45:31.021Z,16.47
2022-10-15T11:46:31.043Z,16.47
2022-10-15T11:47:31.009Z,16.46
2022-10-15T11:48:31.022Z,16.43
2022-10-15T11:49:30.995Z,16.42
2022-10-15T11:50:30.965Z,16.41
2022-10-15T11:51:30.970Z,16.38
2022-10-15T11:52:30.951Z,16.36
2022-10-15T11:53:30.937Z,16.39
2022-10-15T11:54:30.941Z,16.42
2022-10-15T11:55:30.922Z,16.41
2022-10-15T11:56:33.740Z,16.41
2022-10-15T11:57:30.889Z,16.41
2022-10-15T11:58:30.880Z,16.42
2022-10-15T11:59:30.874Z,16.43
2022-10-15T12:00:30.862Z,16.43
2022-10-15T12:01:30.861Z,16.43
2022-10-15T12:02:30.850Z,16.47
2022-10-15T12:03:30.824Z,16.46
2022-10-15T12:04:32.681Z,16.46
2022-10-15T12:05:30.838Z,16.42
2022-10-15T12:06:30.828Z,16.41
2022-10-15T12:07:30.790Z,16.41
2022-10-15T12:08:30.785Z,16.41
2022-10-15T12:09:30.773Z,16.39
2022-10-15T12:10:30.776Z,16.41
2022-10-15T12:11:30.766Z,16.41
2022-10-15T12:12:30.739Z,16.42
2022-10-15T12:13:30.738Z,16.42
2022-10-15T12:14:30.715Z,16.43
2022-10-15T12:15:30.697Z,16.43
2022-10-15T12:16:53.227Z,16.42
2022-10-15T12:17:31.042Z,16.41
2022-10-15T12:18:30.950Z,16.38
2022-10-15T12:19:30.968Z,16.38
2022-10-15T12:20:30.762Z,16.36
2022-10-15T12:21:30.809Z,16.36
2022-10-15T12:22:33.637Z,16.39
2022-10-15T12:23:30.685Z,16.38
2022-10-15T12:24:30.677Z,16.39
2022-10-15T12:25:30.673Z,16.41
2022-10-15T12:26:30.792Z,16.42
2022-10-15T12:27:30.756Z,16.43
2022-10-15T12:28:31.033Z,16.46
2022-10-15T12:29:30.821Z,16.43
2022-10-15T12:30:30.675Z,16.46
2022-10-15T12:31:33.925Z,16.42
2022-10-15T12:32:30.832Z,16.42
2022-10-15T12:33:30.679Z,16.41
2022-10-15T12:34:30.595Z,16.42
2022-10-15T12:35:30.554Z,16.43
2022-10-15T12:36:30.529Z,16.43
2022-10-15T12:37:30.538Z,16.46
2022-10-15T12:38:30.508Z,16.47
2022-10-15T12:40:30.468Z,16.47
2022-10-15T12:41:30.541Z,16.49
2022-10-15T12:42:30.515Z,16.50
2022-10-15T12:43:30.446Z,16.51
2022-10-15T12:44:30.441Z,16.53
2022-10-15T12:45:31.325Z,16.54
2022-10-15T12:46:30.397Z,16.56
2022-10-15T12:47:30.449Z,16.57
2022-10-15T12:48:30.371Z,16.57
2022-10-15T12:49:30.411Z,16.61
2022-10-15T12:50:30.369Z,16.64
2022-10-15T12:51:30.382Z,16.64
2022-10-15T12:52:30.384Z,16.66
2022-10-15T12:53:30.401Z,16.66
2022-10-15T12:54:30.327Z,16.65
2022-10-15T12:55:30.329Z,16.68
2022-10-15T12:56:30.334Z,16.66
2022-10-15T12:57:30.320Z,16.69
2022-10-15T12:58:30.265Z,16.71
2022-10-15T12:59:30.295Z,16.72
2022-10-15T13:00:30.316Z,16.74
2022-10-15T13:01:30.351Z,16.76
2022-10-15T13:02:30.319Z,16.75